createdAt,value
2017-09-10T00:00:52.314Z,955.4
2017-09-10T00:01:54.676Z,955.4
2017-09-10T00:02:56.355Z,955.4
2017-09-10T00:03:58.721Z,955.4
2017-09-10T00:05:00.372Z,955.4
2017-09-10T00:06:02.030Z,955.4
2017-09-10T00:07:03.683Z,955.4
2017-09-10T00:08:05.355Z,955.4
2017-09-10T00:09:07.014Z,955.4
2017-09-10T00:10:09.621Z,955.4
2017-09-10T00:11:11.323Z,955.4
2017-09-10T00:12:13.038Z,955.4
2017-09-10T00:13:14.695Z,955.5
2017-09-10T00:14:16.365Z,955.5
2017-09-10T00:15:18.046Z,955.5
2017-09-10T00:16:20.217Z,955.5
2017-09-10T00:17:21.875Z,955.5
2017-09-10T00:18:23.538Z,955.5
2017-09-10T00:19:25.186Z,955.5
2017-09-10T00:20:28.105Z,955.5
2017-09-10T00:21:30.084Z,955.5
2017-09-10T00:22:31.889Z,955.6
2017-09-10T00:23:33.708Z,955.5
2017-09-10T00:24:35.839Z,955.6
2017-09-10T00:25:37.650Z,955.5
2017-09-10T00:26:39.346Z,955.5
2017-09-10T00:27:40.994Z,955.5
2017-09-10T00:28:42.679Z,955.5
2017-09-10T00:29:44.333Z,955.5
2017-09-10T00:30:46.005Z,955.5
2017-09-10T00:31:47.670Z,955.5
2017-09-10T00:32:49.327Z,955.5
2017-09-10T00:33:50.988Z,955.5
2017-09-10T00:34:53.808Z,955.5
2017-09-10T00:35:55.469Z,955.4
2017-09-10T00:36:57.122Z,955.4
2017-09-10T00:38:00.091Z,955.5
2017-09-10T00:39:01.739Z,955.5
2017-09-10T00:40:03.407Z,955.5
2017-09-10T00:41:05.064Z,955.5
2017-09-10T00:42:06.740Z,955.5
2017-09-10T00:43:09.282Z,955.5
2017-09-10T00:44:10.947Z,955.5
2017-09-10T00:45:12.624Z,955.5
2017-09-10T00:46:14.314Z,955.5
2017-09-10T00:47:15.979Z,955.5
2017-09-10T00:48:17.649Z,955.5
2017-09-10T00:49:19.330Z,955.5
2017-09-10T00:50:20.988Z,955.5
2017-09-10T00:51:22.632Z,955.5
2017-09-10T00:52:25.095Z,955.5
2017-09-10T00:53:26.749Z,955.6
2017-09-10T00:54:28.410Z,955.6
2017-09-10T00:55:30.070Z,955.6
2017-09-10T00:56:31.719Z,955.6
2017-09-10T00:57:34.028Z,955.6
2017-09-10T00:58:35.683Z,955.6
2017-09-10T00:59:37.339Z,955.7
2017-09-10T01:00:39.010Z,955.7
2017-09-10T01:01:40.670Z,955.7
2017-09-10T01:02:42.327Z,955.7
2017-09-10T01:03:44.029Z,955.7
2017-09-10T01:04:46.543Z,955.7
2017-09-10T01:05:48.817Z,955.7
2017-09-10T01:06:50.463Z,955.7
2017-09-10T01:07:52.787Z,955.7
2017-09-10T01:08:54.451Z,955.7
2017-09-10T01:09:56.100Z,955.6
2017-09-10T01:10:57.752Z,955.7
2017-09-10T01:12:00.042Z,955.7
2017-09-10T01:13:01.012Z,955.7
2017-09-10T01:14:05.192Z,955.7
2017-09-10T01:15:07.809Z,955.7
2017-09-10T01:16:09.461Z,955.7
2017-09-10T01:17:11.114Z,955.7
2017-09-10T01:18:12.778Z,955.7
2017-09-10T01:19:14.436Z,955.7
2017-09-10T01:20:16.761Z,955.7
2017-09-10T01:21:19.070Z,955.7
2017-09-10T01:22:21.691Z,955.7
2017-09-10T01:23:24.181Z,955.7
2017-09-10T01:24:25.832Z,955.7
2017-09-10T01:25:27.485Z,955.7
2017-09-10T01:26:29.139Z,955.7
2017-09-10T01:27:30.795Z,955.7
2017-09-10T01:28:33.144Z,955.7
2017-09-10T01:29:35.344Z,955.7
2017-09-10T01:30:36.995Z,955.7
2017-09-10T01:31:38.656Z,955.7
2017-09-10T01:32:41.287Z,955.7
2017-09-10T01:33:42.943Z,955.8
2017-09-10T01:34:44.601Z,955.8
2017-09-10T01:35:46.255Z,955.8
2017-09-10T01:36:47.903Z,955.8
2017-09-10T01:37:49.560Z,955.7
2017-09-10T01:38:51.759Z,955.8
2017-09-10T01:39:54.077Z,955.7
2017-09-10T01:40:55.741Z,955.8
2017-09-10T01:41:57.410Z,955.8
2017-09-10T01:42:59.058Z,955.8
2017-09-10T01:44:02.369Z,955.8
2017-09-10T01:45:04.664Z,955.8
2017-09-10T01:46:06.323Z,955.7
2017-09-10T01:47:07.979Z,955.7
2017-09-10T01:48:09.635Z,955.7
2017-09-10T01:49:11.298Z,955.7
2017-09-10T01:50:13.596Z,955.8
2017-09-10T01:51:15.253Z,955.8
2017-09-10T01:52:16.909Z,955.8
2017-09-10T01:53:18.566Z,955.8
2017-09-10T01:54:21.192Z,955.8
2017-09-10T01:55:23.814Z,955.8
2017-09-10T02:01:57.430Z,955.9
2017-09-10T02:02:59.096Z,955.8
2017-09-10T02:04:01.477Z,955.9
2017-09-10T02:05:03.116Z,955.9
2017-09-10T02:06:04.773Z,955.9
2017-09-10T02:07:06.457Z,955.9
2017-09-10T02:08:08.125Z,955.9
2017-09-10T02:09:09.783Z,955.9
2017-09-10T02:10:11.441Z,955.9
2017-09-10T02:11:13.100Z,955.9
2017-09-10T02:12:14.754Z,955.9
2017-09-10T02:13:16.404Z,956.0
2017-09-10T02:14:18.070Z,956.0
2017-09-10T02:15:20.436Z,956.0
2017-09-10T02:16:22.099Z,956.0
2017-09-10T02:17:23.752Z,956.0
2017-09-10T02:18:25.406Z,956.0
2017-09-10T02:19:27.065Z,956.0
2017-09-10T02:20:28.718Z,956.1
2017-09-10T02:21:30.378Z,956.1
2017-09-10T02:22:32.055Z,956.1
2017-09-10T02:23:34.508Z,956.2
2017-09-10T02:24:36.161Z,956.1
2017-09-10T02:25:37.823Z,956.1
2017-09-10T02:26:40.364Z,956.1
2017-09-10T02:27:42.018Z,956.1
2017-09-10T02:28:44.574Z,956.1
2017-09-10T02:29:46.226Z,956.1
2017-09-10T02:30:48.468Z,956.1
2017-09-10T02:31:50.117Z,956.1
2017-09-10T02:32:51.766Z,956.1
2017-09-10T02:33:53.419Z,956.1
2017-09-10T02:34:55.071Z,956.2
2017-09-10T02:35:57.411Z,956.1
2017-09-10T02:36:59.077Z,956.1
2017-09-10T02:38:01.419Z,956.1
2017-09-10T02:39:03.972Z,956.1
2017-09-10T02:40:05.636Z,956.1
2017-09-10T02:41:07.292Z,956.1
2017-09-10T02:42:08.951Z,956.1
2017-09-10T02:43:10.600Z,956.1
2017-09-10T02:44:12.256Z,956.1
2017-09-10T02:45:13.911Z,956.1
2017-09-10T02:46:15.577Z,956.1
2017-09-10T02:47:17.233Z,956.1
2017-09-10T02:48:18.886Z,956.2
2017-09-10T02:49:20.552Z,956.1
2017-09-10T02:50:22.205Z,956.1
2017-09-10T02:51:23.907Z,956.2
2017-09-10T02:52:25.587Z,956.1
2017-09-10T02:53:27.247Z,956.2
2017-09-10T02:54:28.915Z,956.2
2017-09-10T02:55:30.557Z,956.2
2017-09-10T02:56:32.209Z,956.3
2017-09-10T02:57:33.867Z,956.3
2017-09-10T02:58:35.543Z,956.3
2017-09-10T02:59:37.198Z,956.2
2017-09-10T03:00:38.859Z,956.3
2017-09-10T03:01:40.525Z,956.3
2017-09-10T03:02:43.945Z,956.3
2017-09-10T03:03:45.609Z,956.3
2017-09-10T03:04:47.263Z,956.2
2017-09-10T03:05:50.348Z,956.2
2017-09-10T03:06:52.006Z,956.2
2017-09-10T03:07:53.670Z,956.2
2017-09-10T03:08:55.327Z,956.2
2017-09-10T03:09:56.976Z,956.2
2017-09-10T03:10:59.137Z,956.2
2017-09-10T03:12:00.791Z,956.2
2017-09-10T03:13:02.436Z,956.3
2017-09-10T03:14:04.968Z,956.3
2017-09-10T03:15:06.618Z,956.3
2017-09-10T03:16:08.282Z,956.3
2017-09-10T03:17:09.931Z,956.3
2017-09-10T03:18:12.530Z,956.3
2017-09-10T03:19:14.196Z,956.4
2017-09-10T03:20:15.853Z,956.4
2017-09-10T03:21:19.335Z,956.4
2017-09-10T03:22:21.008Z,956.4
2017-09-10T03:23:22.660Z,956.4
2017-09-10T03:24:24.311Z,956.4
2017-09-10T03:25:25.961Z,956.4
2017-09-10T03:26:27.616Z,956.4
2017-09-10T03:27:29.293Z,956.4
2017-09-10T03:28:30.957Z,956.4
2017-09-10T03:29:32.615Z,956.4
2017-09-10T03:30:34.268Z,956.4
2017-09-10T03:31:35.921Z,956.4
2017-09-10T03:32:37.568Z,956.4
2017-09-10T03:33:39.231Z,956.4
2017-09-10T03:34:40.887Z,956.4
2017-09-10T03:35:42.542Z,956.5
2017-09-10T03:36:45.003Z,956.5
2017-09-10T03:37:46.659Z,956.5
2017-09-10T03:38:48.927Z,956.5
2017-09-10T03:39:50.583Z,956.5
2017-09-10T03:40:52.240Z,956.5
2017-09-10T03:41:53.885Z,956.5
2017-09-10T03:42:55.555Z,956.5
2017-09-10T03:43:57.209Z,956.6
2017-09-10T03:44:58.863Z,956.5
2017-09-10T03:46:01.182Z,956.6
2017-09-10T03:47:02.854Z,956.6
2017-09-10T03:48:05.337Z,956.6
2017-09-10T03:49:06.997Z,956.6
2017-09-10T03:50:08.650Z,956.7
2017-09-10T03:51:10.310Z,956.6
2017-09-10T03:52:11.961Z,956.7
2017-09-10T03:53:13.633Z,956.7
2017-09-10T03:54:15.291Z,956.7
2017-09-10T03:55:16.957Z,956.6
2017-09-10T03:56:19.184Z,956.6
2017-09-10T03:57:20.844Z,956.6
2017-09-10T03:58:22.493Z,956.6
2017-09-10T03:59:24.147Z,956.6
2017-09-10T04:00:25.897Z,956.6
2017-09-10T04:01:27.558Z,956.6
2017-09-10T04:02:29.216Z,956.6
2017-09-10T04:03:30.868Z,956.6
2017-09-10T04:04:32.521Z,956.6
2017-09-10T04:05:34.176Z,956.6
2017-09-10T04:06:35.851Z,956.6
2017-09-10T04:07:37.509Z,956.7
2017-09-10T04:08:39.162Z,956.7
2017-09-10T04:09:40.821Z,956.7
2017-09-10T04:10:42.490Z,956.7
2017-09-10T04:11:44.152Z,956.8
2017-09-10T04:12:45.810Z,956.7
2017-09-10T04:13:47.472Z,956.8
2017-09-10T04:14:49.127Z,956.8
2017-09-10T04:15:50.784Z,956.8
2017-09-10T04:16:52.440Z,956.8
2017-09-10T04:17:54.090Z,956.8
2017-09-10T04:18:55.756Z,956.8
2017-09-10T04:19:57.422Z,956.8
2017-09-10T04:20:59.079Z,956.9
2017-09-10T04:22:02.353Z,956.9
2017-09-10T04:23:04.782Z,956.9
2017-09-10T04:24:06.434Z,957.0
2017-09-10T04:25:08.947Z,956.9
2017-09-10T04:26:10.614Z,957.0
2017-09-10T04:27:12.269Z,957.0
2017-09-10T04:28:13.936Z,956.9
2017-09-10T04:29:15.591Z,957.0
2017-09-10T04:30:17.290Z,957.0
2017-09-10T04:31:18.941Z,957.0
2017-09-10T04:32:20.613Z,957.1
2017-09-10T04:33:23.141Z,957.1
2017-09-10T04:34:25.664Z,957.1
2017-09-10T04:35:27.331Z,957.1
2017-09-10T04:36:29.514Z,957.1
2017-09-10T04:37:31.180Z,957.1
2017-09-10T04:38:32.845Z,957.1
2017-09-10T04:39:34.497Z,957.1
2017-09-10T04:40:36.174Z,957.1
2017-09-10T04:41:37.831Z,957.1
2017-09-10T04:42:39.535Z,957.1
2017-09-10T04:43:42.515Z,957.1
2017-09-10T04:44:44.168Z,957.2
2017-09-10T04:45:46.742Z,957.1
2017-09-10T04:46:49.267Z,957.1
2017-09-10T04:47:50.934Z,957.1
2017-09-10T04:48:52.585Z,957.1
2017-09-10T04:49:55.154Z,957.1
2017-09-10T04:50:56.813Z,957.1
2017-09-10T04:52:00.334Z,957.1
2017-09-10T04:53:01.990Z,957.1
2017-09-10T04:54:04.502Z,957.1
2017-09-10T04:55:06.160Z,957.2
2017-09-10T04:56:07.824Z,957.2
2017-09-10T04:57:09.484Z,957.2
2017-09-10T04:58:11.140Z,957.2
2017-09-10T04:59:12.798Z,957.2
2017-09-10T05:00:15.328Z,957.2
2017-09-10T05:01:16.995Z,957.2
2017-09-10T05:02:19.515Z,957.2
2017-09-10T05:03:21.180Z,957.2
2017-09-10T05:04:22.839Z,957.2
2017-09-10T05:05:25.509Z,957.2
2017-09-10T05:06:27.163Z,957.2
2017-09-10T05:07:28.829Z,957.2
2017-09-10T05:08:30.480Z,957.2
2017-09-10T05:09:32.134Z,957.3
2017-09-10T05:10:33.794Z,957.3
2017-09-10T05:11:35.449Z,957.3
2017-09-10T05:12:37.105Z,957.3
2017-09-10T05:13:38.767Z,957.3
2017-09-10T05:14:41.068Z,957.3
2017-09-10T05:15:42.798Z,957.3
2017-09-10T05:16:44.459Z,957.3
2017-09-10T05:17:46.867Z,957.4
2017-09-10T05:18:48.533Z,957.4
2017-09-10T05:19:50.197Z,957.4
2017-09-10T05:20:51.864Z,957.4
2017-09-10T05:21:53.540Z,957.4
2017-09-10T05:22:55.257Z,957.4
2017-09-10T05:23:56.928Z,957.4
2017-09-10T05:24:58.586Z,957.4
2017-09-10T05:26:01.053Z,957.4
2017-09-10T05:27:02.715Z,957.4
2017-09-10T05:28:04.375Z,957.4
2017-09-10T05:29:06.034Z,957.4
2017-09-10T05:30:07.694Z,957.4
2017-09-10T05:31:09.356Z,957.4
2017-09-10T05:32:11.013Z,957.4
2017-09-10T05:33:12.672Z,957.4
2017-09-10T05:34:14.328Z,957.4
2017-09-10T05:35:16.034Z,957.4
2017-09-10T05:36:17.745Z,957.4
2017-09-10T05:37:19.405Z,957.4
2017-09-10T05:38:21.070Z,957.4
2017-09-10T05:39:22.744Z,957.5
2017-09-10T05:40:25.099Z,957.5
2017-09-10T05:41:26.761Z,957.5
2017-09-10T05:42:28.424Z,957.5
2017-09-10T05:43:30.088Z,957.6
2017-09-10T05:44:31.751Z,957.5
2017-09-10T05:45:33.422Z,957.5
2017-09-10T05:46:35.093Z,957.6
2017-09-10T05:47:36.756Z,957.6
2017-09-10T05:48:38.420Z,957.6
2017-09-10T05:49:40.711Z,957.6
2017-09-10T05:50:43.122Z,957.6
2017-09-10T05:51:45.338Z,957.6
2017-09-10T05:52:47.842Z,957.6
2017-09-10T05:53:49.417Z,957.6
2017-09-10T05:54:51.080Z,957.6
2017-09-10T06:01:27.636Z,957.7
2017-09-10T06:02:29.293Z,957.7
2017-09-10T06:04:21.111Z,957.7
2017-09-10T06:05:23.388Z,957.7
2017-09-10T06:06:25.129Z,957.7
2017-09-10T06:07:26.787Z,957.7
2017-09-10T06:08:29.906Z,957.7
2017-09-10T06:09:31.578Z,957.7
2017-09-10T06:10:33.235Z,957.8
2017-09-10T06:11:35.786Z,957.7
2017-09-10T06:12:37.450Z,957.7
2017-09-10T06:13:42.387Z,957.7
2017-09-10T06:14:43.152Z,957.8
2017-09-10T06:15:45.304Z,957.7
2017-09-10T06:16:46.981Z,957.7
2017-09-10T06:17:48.649Z,957.7
2017-09-10T06:18:50.310Z,957.8
2017-09-10T06:19:51.978Z,957.8
2017-09-10T06:20:53.648Z,957.8
2017-09-10T06:21:55.305Z,957.8
2017-09-10T06:22:56.992Z,957.9
2017-09-10T06:23:58.656Z,957.9
2017-09-10T06:25:01.144Z,957.9
2017-09-10T06:26:02.804Z,957.9
2017-09-10T06:27:04.468Z,957.9
2017-09-10T06:28:06.132Z,958.0
2017-09-10T06:29:07.801Z,958.0
2017-09-10T06:30:09.480Z,958.0
2017-09-10T06:31:11.186Z,957.9
2017-09-10T06:32:12.815Z,957.9
2017-09-10T06:33:14.476Z,957.9
2017-09-10T06:34:16.139Z,957.9
2017-09-10T06:35:17.809Z,957.9
2017-09-10T06:36:19.464Z,957.9
2017-09-10T06:37:21.127Z,957.9
2017-09-10T06:38:22.785Z,957.9
2017-09-10T06:39:24.459Z,957.9
2017-09-10T06:40:26.118Z,957.9
2017-09-10T06:41:27.789Z,958.0
2017-09-10T06:42:29.448Z,957.9
2017-09-10T06:43:31.120Z,958.0
2017-09-10T06:44:35.538Z,958.0
2017-09-10T06:45:37.217Z,958.1
2017-09-10T06:46:38.895Z,958.1
2017-09-10T06:47:41.200Z,958.1
2017-09-10T06:48:42.853Z,958.1
2017-09-10T06:49:45.088Z,958.1
2017-09-10T06:50:46.771Z,958.1
2017-09-10T06:51:50.201Z,958.1
2017-09-10T06:52:52.441Z,958.1
2017-09-10T06:53:54.114Z,958.1
2017-09-10T06:54:55.791Z,958.1
2017-09-10T06:55:57.449Z,958.1
2017-09-10T06:56:59.141Z,958.1
2017-09-10T06:58:01.463Z,958.0
2017-09-10T06:59:04.946Z,958.1
2017-09-10T07:00:06.606Z,958.0
2017-09-10T07:01:08.264Z,958.1
2017-09-10T07:02:09.928Z,958.1
2017-09-10T07:03:11.593Z,958.1
2017-09-10T07:04:13.274Z,958.1
2017-09-10T07:05:14.937Z,958.1
2017-09-10T07:06:17.126Z,958.1
2017-09-10T07:07:18.793Z,958.2
2017-09-10T07:08:20.457Z,958.3
2017-09-10T07:09:22.120Z,958.2
2017-09-10T07:10:23.782Z,958.2
2017-09-10T07:11:25.440Z,958.2
2017-09-10T07:12:27.120Z,958.2
2017-09-10T07:13:28.777Z,958.3
2017-09-10T07:14:30.446Z,958.2
2017-09-10T07:15:32.123Z,958.2
2017-09-10T07:16:34.788Z,958.2
2017-09-10T07:17:36.448Z,958.2
2017-09-10T07:18:38.972Z,958.2
2017-09-10T07:19:40.637Z,958.2
2017-09-10T07:20:42.300Z,958.3
2017-09-10T07:21:44.546Z,958.2
2017-09-10T07:22:46.217Z,958.3
2017-09-10T07:23:49.186Z,958.3
2017-09-10T07:24:50.849Z,958.3
2017-09-10T07:25:52.472Z,958.3
2017-09-10T07:26:54.769Z,958.4
2017-09-10T07:27:57.376Z,958.4
2017-09-10T07:28:59.140Z,958.4
2017-09-10T07:30:01.819Z,958.4
2017-09-10T07:31:04.969Z,958.3
2017-09-10T07:32:06.643Z,958.4
2017-09-10T07:33:10.101Z,958.3
2017-09-10T07:34:11.770Z,958.4
2017-09-10T07:35:13.434Z,958.4
2017-09-10T07:36:20.399Z,958.4
2017-09-10T07:37:21.089Z,958.4
2017-09-10T07:38:22.765Z,958.4
2017-09-10T07:39:24.430Z,958.4
2017-09-10T07:40:26.943Z,958.5
2017-09-10T07:41:28.805Z,958.5
2017-09-10T07:42:31.118Z,958.5
2017-09-10T07:43:32.837Z,958.5
2017-09-10T07:44:34.516Z,958.5
2017-09-10T07:45:36.289Z,958.5
2017-09-10T07:46:38.522Z,958.5
2017-09-10T07:47:40.465Z,958.5
2017-09-10T07:48:43.954Z,958.5
2017-09-10T07:49:45.893Z,958.6
2017-09-10T07:50:49.401Z,958.5
2017-09-10T07:51:52.032Z,958.5
2017-09-10T07:52:55.538Z,958.6
2017-09-10T07:53:59.298Z,958.7
2017-09-10T07:55:02.251Z,958.7
2017-09-10T07:56:03.911Z,958.6
2017-09-10T07:57:06.905Z,958.7
2017-09-10T07:58:10.714Z,958.7
2017-09-10T07:59:14.901Z,958.7
2017-09-10T08:00:17.588Z,958.7
2017-09-10T08:01:21.311Z,958.7
2017-09-10T08:02:23.925Z,958.7
2017-09-10T08:03:29.120Z,958.7
2017-09-10T08:04:31.549Z,958.7
2017-09-10T08:05:34.809Z,958.7
2017-09-10T08:06:38.032Z,958.7
2017-09-10T08:07:40.766Z,958.7
2017-09-10T08:08:43.238Z,958.7
2017-09-10T08:09:47.238Z,958.7
2017-09-10T08:10:50.581Z,958.8
2017-09-10T08:11:54.016Z,958.7
2017-09-10T08:12:56.969Z,958.7
2017-09-10T08:13:59.559Z,958.7
2017-09-10T08:15:02.561Z,958.7
2017-09-10T08:16:05.519Z,958.7
2017-09-10T08:17:08.951Z,958.7
2017-09-10T08:18:13.068Z,958.7
2017-09-10T08:19:15.633Z,958.7
2017-09-10T08:20:18.213Z,958.8
2017-09-10T08:21:21.407Z,958.7
2017-09-10T08:22:23.643Z,958.8
2017-09-10T08:23:27.998Z,958.8
2017-09-10T08:24:32.598Z,958.8
2017-09-10T08:25:35.583Z,958.8
2017-09-10T08:26:38.590Z,958.8
2017-09-10T08:27:41.942Z,958.8
2017-09-10T08:28:44.994Z,958.7
2017-09-10T08:29:47.142Z,958.8
2017-09-10T08:30:51.413Z,958.8
2017-09-10T08:31:53.193Z,958.7
2017-09-10T08:32:55.567Z,958.7
2017-09-10T08:33:57.228Z,958.7
2017-09-10T08:34:59.995Z,958.7
2017-09-10T08:36:01.664Z,958.7
2017-09-10T08:37:04.276Z,958.7
2017-09-10T08:38:06.642Z,958.8
2017-09-10T08:39:10.699Z,958.8
2017-09-10T08:40:13.868Z,958.8
2017-09-10T08:41:17.013Z,958.8
2017-09-10T08:42:19.257Z,958.8
2017-09-10T08:43:21.958Z,958.8
2017-09-10T08:44:26.101Z,958.8
2017-09-10T08:45:31.013Z,958.9
2017-09-10T08:46:33.428Z,958.9
2017-09-10T08:47:36.379Z,958.9
2017-09-10T08:48:39.474Z,958.9
2017-09-10T08:49:41.920Z,958.8
2017-09-10T08:50:45.279Z,958.8
2017-09-10T08:51:47.841Z,958.8
2017-09-10T08:52:51.489Z,958.8
2017-09-10T08:53:54.079Z,958.8
2017-09-10T08:54:58.966Z,958.8
2017-09-10T08:56:01.643Z,958.9
2017-09-10T08:57:03.798Z,959.1
2017-09-10T08:58:07.053Z,959.1
2017-09-10T08:59:10.975Z,959.1
2017-09-10T09:00:13.600Z,959.1
2017-09-10T09:01:16.849Z,959.1
2017-09-10T09:02:19.950Z,959.0
2017-09-10T09:03:21.608Z,959.0
2017-09-10T09:04:24.718Z,959.0
2017-09-10T09:05:27.035Z,959.0
2017-09-10T09:06:30.909Z,959.0
2017-09-10T09:07:33.216Z,958.9
2017-09-10T09:08:35.476Z,959.0
2017-09-10T09:09:37.143Z,959.0
2017-09-10T09:10:42.926Z,959.0
2017-09-10T09:11:45.620Z,959.1
2017-09-10T09:12:47.938Z,959.1
2017-09-10T09:13:51.970Z,959.0
2017-09-10T09:14:55.030Z,958.9
2017-09-10T09:15:56.706Z,958.9
2017-09-10T09:16:59.703Z,958.9
2017-09-10T09:18:03.478Z,958.9
2017-09-10T09:19:05.178Z,958.9
2017-09-10T09:20:08.184Z,958.9
2017-09-10T09:21:13.922Z,958.9
2017-09-10T09:22:20.984Z,958.9
2017-09-10T09:23:24.830Z,959.0
2017-09-10T09:24:28.023Z,959.1
2017-09-10T09:25:30.251Z,959.1
2017-09-10T09:26:34.193Z,959.1
2017-09-10T09:27:39.417Z,959.1
2017-09-10T09:28:43.484Z,959.1
2017-09-10T09:29:46.700Z,959.0
2017-09-10T09:30:52.424Z,958.9
2017-09-10T09:31:59.530Z,959.0
2017-09-10T09:33:03.645Z,959.0
2017-09-10T09:34:05.507Z,959.1
2017-09-10T09:35:08.534Z,959.2
2017-09-10T09:36:12.422Z,959.2
2017-09-10T09:37:14.213Z,959.1
2017-09-10T09:38:16.646Z,959.1
2017-09-10T09:39:18.358Z,959.1
2017-09-10T09:40:20.872Z,959.1
2017-09-10T09:41:23.475Z,959.0
2017-09-10T09:42:26.537Z,959.0
2017-09-10T09:43:28.888Z,959.1
2017-09-10T09:44:31.729Z,959.0
2017-09-10T09:45:35.065Z,959.1
2017-09-10T09:46:39.419Z,959.2
2017-09-10T09:47:43.009Z,959.1
2017-09-10T09:48:46.277Z,959.2
2017-09-10T09:49:49.365Z,959.1
2017-09-10T09:50:52.709Z,959.1
2017-09-10T09:51:56.992Z,959.1
2017-09-10T09:53:00.728Z,959.1
2017-09-10T09:54:05.008Z,959.0
2017-09-10T09:55:09.640Z,959.1
2017-09-10T10:01:07.252Z,959.0
2017-09-10T10:02:09.876Z,959.1
2017-09-10T10:03:13.088Z,959.1
2017-09-10T10:04:18.042Z,959.2
2017-09-10T10:05:19.199Z,959.1
2017-09-10T10:06:22.370Z,959.1
2017-09-10T10:07:25.012Z,959.0
2017-09-10T10:08:29.232Z,959.2
2017-09-10T10:09:34.682Z,959.4
2017-09-10T10:10:37.796Z,959.2
2017-09-10T10:11:41.860Z,959.2
2017-09-10T10:12:45.100Z,959.0
2017-09-10T10:13:49.174Z,959.3
2017-09-10T10:14:53.992Z,959.3
2017-09-10T10:15:54.699Z,959.3
2017-09-10T10:16:57.632Z,959.1
2017-09-10T10:18:03.980Z,959.3
2017-09-10T10:19:06.923Z,959.4
2017-09-10T10:20:10.548Z,959.0
2017-09-10T10:21:13.830Z,959.2
2017-09-10T10:22:17.640Z,959.4
2017-09-10T10:23:20.088Z,959.2
2017-09-10T10:24:24.807Z,959.1
2017-09-10T10:25:26.479Z,959.0
2017-09-10T10:26:29.100Z,959.1
2017-09-10T10:27:32.650Z,959.1
2017-09-10T10:28:35.919Z,959.0
2017-09-10T10:29:40.189Z,959.0
2017-09-10T10:30:42.825Z,959.0
2017-09-10T10:31:45.305Z,959.2
2017-09-10T10:32:47.625Z,959.0
2017-09-10T10:33:50.299Z,958.9
2017-09-10T10:34:53.419Z,959.0
2017-09-10T10:35:55.109Z,959.0
2017-09-10T10:36:56.789Z,959.0
2017-09-10T10:38:02.530Z,958.9
2017-09-10T10:39:05.324Z,959.1
2017-09-10T10:40:08.559Z,959.2
2017-09-10T10:41:12.942Z,959.2
2017-09-10T10:42:15.339Z,959.2
2017-09-10T10:43:17.017Z,959.1
2017-09-10T10:44:19.647Z,959.1
2017-09-10T10:45:25.255Z,959.1
2017-09-10T10:46:28.490Z,959.0
2017-09-10T10:47:30.140Z,959.0
2017-09-10T10:48:33.504Z,959.0
2017-09-10T10:49:35.706Z,959.0
2017-09-10T10:50:38.189Z,959.1
2017-09-10T10:51:42.692Z,959.0
2017-09-10T10:52:44.992Z,958.9
2017-09-10T10:53:46.772Z,958.9
2017-09-10T10:54:50.177Z,958.8
2017-09-10T10:55:52.561Z,958.8
2017-09-10T10:56:58.004Z,959.0
2017-09-10T10:57:59.767Z,959.1
2017-09-10T10:59:02.028Z,959.0
2017-09-10T11:00:07.996Z,959.1
2017-09-10T11:01:09.669Z,958.9
2017-09-10T11:02:12.582Z,958.9
2017-09-10T11:03:16.435Z,959.0
2017-09-10T11:04:20.056Z,958.9
2017-09-10T11:05:22.670Z,958.9
2017-09-10T11:06:25.766Z,958.8
2017-09-10T11:07:28.090Z,958.7
2017-09-10T11:08:30.503Z,958.7
2017-09-10T11:09:31.391Z,958.7
2017-09-10T11:10:33.554Z,958.6
2017-09-10T11:11:36.072Z,958.7
2017-09-10T11:12:39.339Z,958.7
2017-09-10T11:13:43.496Z,958.7
2017-09-10T11:14:45.834Z,958.7
2017-09-10T11:15:49.241Z,958.7
2017-09-10T11:16:50.939Z,958.7
2017-09-10T11:17:53.491Z,958.7
2017-09-10T11:18:55.978Z,958.6
2017-09-10T11:20:02.282Z,958.7
2017-09-10T11:21:05.459Z,958.7
2017-09-10T11:22:08.000Z,958.8
2017-09-10T11:23:09.448Z,958.8
2017-09-10T11:24:12.041Z,958.8
2017-09-10T11:25:14.866Z,958.8
2017-09-10T11:26:19.134Z,958.8
2017-09-10T11:27:21.792Z,958.8
2017-09-10T11:28:23.475Z,958.8
2017-09-10T11:29:26.578Z,958.7
2017-09-10T11:30:29.538Z,958.7
2017-09-10T11:31:34.133Z,958.7
2017-09-10T11:32:37.126Z,958.6
2017-09-10T11:33:40.256Z,958.7
2017-09-10T11:34:42.624Z,958.8
2017-09-10T11:35:44.944Z,958.9
2017-09-10T11:36:46.676Z,959.2
2017-09-10T11:37:50.007Z,959.3
2017-09-10T11:38:56.063Z,959.1
2017-09-10T11:40:00.753Z,959.4
2017-09-10T11:41:03.004Z,959.3
2017-09-10T11:42:05.370Z,959.0
2017-09-10T11:43:07.605Z,958.9
2017-09-10T11:44:11.056Z,958.9
2017-09-10T11:45:14.250Z,958.9
2017-09-10T11:46:19.914Z,958.9
2017-09-10T11:47:25.152Z,958.8
2017-09-10T11:48:28.517Z,958.8
2017-09-10T11:49:30.980Z,958.8
2017-09-10T11:50:34.005Z,958.5
2017-09-10T11:51:34.955Z,958.7
2017-09-10T11:52:38.087Z,958.7
2017-09-10T11:53:40.691Z,958.8
2017-09-10T11:54:44.001Z,958.8
2017-09-10T11:55:46.341Z,958.7
2017-09-10T11:56:52.211Z,958.9
2017-09-10T11:57:55.007Z,959.0
2017-09-10T11:58:56.028Z,958.9
2017-09-10T11:59:59.795Z,958.9
2017-09-10T12:01:04.508Z,958.9
2017-09-10T12:02:07.188Z,958.9
2017-09-10T12:03:11.310Z,958.5
2017-09-10T12:04:14.382Z,958.5
2017-09-10T12:05:17.511Z,958.5
2017-09-10T12:06:18.622Z,958.5
2017-09-10T12:07:21.160Z,958.5
2017-09-10T12:08:23.587Z,958.5
2017-09-10T12:09:26.740Z,958.7
2017-09-10T12:10:29.237Z,958.7
2017-09-10T12:11:31.659Z,958.7
2017-09-10T12:12:35.565Z,958.7
2017-09-10T12:13:39.571Z,958.8
2017-09-10T12:14:42.788Z,958.8
2017-09-10T12:15:46.563Z,958.8
2017-09-10T12:16:52.230Z,958.9
2017-09-10T12:17:55.315Z,958.9
2017-09-10T12:18:58.982Z,958.8
2017-09-10T12:20:02.522Z,958.6
2017-09-10T12:21:05.108Z,958.7
2017-09-10T12:22:08.645Z,958.8
2017-09-10T12:23:10.353Z,958.7
2017-09-10T12:24:12.029Z,958.6
2017-09-10T12:25:14.627Z,958.6
2017-09-10T12:26:16.348Z,958.6
2017-09-10T12:27:18.628Z,958.5
2017-09-10T12:28:22.669Z,958.5
2017-09-10T12:29:25.205Z,958.5
2017-09-10T12:30:26.881Z,958.6
2017-09-10T12:31:29.075Z,958.6
2017-09-10T12:32:30.775Z,958.8
2017-09-10T12:33:34.752Z,958.6
2017-09-10T12:34:37.656Z,958.7
2017-09-10T12:35:40.673Z,958.5
2017-09-10T12:36:44.596Z,958.5
2017-09-10T12:37:47.133Z,958.4
2017-09-10T12:38:48.969Z,958.4
2017-09-10T12:39:53.155Z,958.4
2017-09-10T12:40:55.574Z,958.4
2017-09-10T12:41:59.018Z,958.4
2017-09-10T12:43:01.678Z,958.4
2017-09-10T12:44:04.405Z,958.4
2017-09-10T12:45:09.671Z,958.4
2017-09-10T12:46:11.477Z,958.5
2017-09-10T12:47:13.124Z,958.7
2017-09-10T12:48:15.517Z,958.7
2017-09-10T12:49:17.106Z,958.6
2017-09-10T12:50:19.776Z,958.4
2017-09-10T12:51:22.019Z,958.3
2017-09-10T12:52:23.171Z,958.3
2017-09-10T12:53:25.683Z,958.4
2017-09-10T12:54:29.156Z,958.4
2017-09-10T12:55:33.090Z,958.5
2017-09-10T12:56:36.018Z,958.7
2017-09-10T12:57:37.841Z,958.5
2017-09-10T12:58:41.674Z,958.5
2017-09-10T12:59:44.090Z,958.4
2017-09-10T13:00:46.435Z,958.3
2017-09-10T13:01:48.102Z,958.3
2017-09-10T13:02:49.840Z,958.3
2017-09-10T13:03:53.688Z,958.3
2017-09-10T13:04:57.016Z,958.3
2017-09-10T13:06:01.135Z,958.3
2017-09-10T13:07:05.863Z,958.5
2017-09-10T13:08:09.846Z,958.6
2017-09-10T13:09:13.278Z,959.1
2017-09-10T13:10:17.522Z,959.1
2017-09-10T13:11:22.178Z,958.8
2017-09-10T13:12:25.316Z,958.4
2017-09-10T13:13:27.807Z,958.4
2017-09-10T13:14:30.787Z,958.2
2017-09-10T13:15:34.784Z,958.4
2017-09-10T13:16:37.924Z,958.2
2017-09-10T13:17:42.773Z,958.4
2017-09-10T13:18:45.729Z,958.2
2017-09-10T13:19:48.022Z,958.2
2017-09-10T13:20:50.951Z,958.3
2017-09-10T13:21:53.555Z,958.2
2017-09-10T13:22:56.210Z,958.2
2017-09-10T13:24:00.199Z,958.1
2017-09-10T13:25:04.025Z,958.2
2017-09-10T13:26:06.174Z,958.5
2017-09-10T13:27:10.525Z,958.3
2017-09-10T13:28:12.589Z,958.4
2017-09-10T13:29:15.694Z,958.5
2017-09-10T13:30:19.964Z,958.6
2017-09-10T13:31:24.186Z,958.4
2017-09-10T13:32:28.647Z,958.4
2017-09-10T13:33:33.528Z,958.2
2017-09-10T13:34:37.057Z,958.1
2017-09-10T13:35:42.789Z,958.2
2017-09-10T13:36:47.031Z,958.3
2017-09-10T13:37:56.042Z,958.2
2017-09-10T13:39:05.755Z,958.2
2017-09-10T13:40:09.736Z,958.3
2017-09-10T13:41:13.641Z,958.1